Time;durP1;ratioP1;P1;durP2;ratioP2;P2;SDS_P1;SDS_P2;PMS_P1;PMS_P2;Temp;Humidity;BMP_temperature;BMP_pressure;BME280_temperature;BME280_humidity;BME280_pressure;Samples;Min_cycle;Max_cycle;Signal;HPM_P1;HPM_P2
2023/12/03 00:00:53;;;;;;;13.07;6.63;;;0.90;99.90;;;;;;5072440;28;20016;-43
2023/12/03 00:03:20;;;;;;;15.25;6.85;;;0.90;99.90;;;;;;5072259;28;20532;-43
2023/12/03 00:05:46;;;;;;;16.42;7.43;;;0.80;99.90;;;;;;5072219;28;20421;-47
2023/12/03 00:08:12;;;;;;;12.90;7.35;;;0.90;99.90;;;;;;5071642;28;20089;-48
2023/12/03 00:10:37;;;;;;;14.18;7.95;;;0.80;99.90;;;;;;5069500;28;20389;-43
2023/12/03 00:13:03;;;;;;;16.13;7.78;;;0.90;99.90;;;;;;5071751;28;20016;-44
2023/12/03 00:15:29;;;;;;;14.77;7.43;;;0.80;99.90;;;;;;5054399;28;20032;-44
2023/12/03 00:17:54;;;;;;;14.88;6.93;;;0.80;99.90;;;;;;5053918;28;20037;-43
2023/12/03 00:20:20;;;;;;;11.07;6.18;;;0.80;99.90;;;;;;5057537;28;20091;-43
2023/12/03 00:22:46;;;;;;;14.93;6.38;;;0.80;99.90;;;;;;5055879;28;20025;-48
2023/12/03 00:25:12;;;;;;;14.93;6.93;;;0.80;99.90;;;;;;5062163;28;20027;-50
2023/12/03 00:27:37;;;;;;;11.20;6.50;;;0.90;99.90;;;;;;5058211;28;20044;-45
2023/12/03 00:30:03;;;;;;;15.75;7.22;;;1.00;99.90;;;;;;5058759;28;20390;-46
2023/12/03 00:32:29;;;;;;;16.20;7.68;;;1.00;99.90;;;;;;5051742;28;20504;-44
2023/12/03 00:34:54;;;;;;;19.83;8.00;;;1.00;99.90;;;;;;5051639;28;20053;-43
2023/12/03 00:37:20;;;;;;;13.93;6.75;;;0.90;99.90;;;;;;5051697;28;20045;-51
2023/12/03 00:39:47;;;;;;;15.00;6.88;;;0.90;99.90;;;;;;5065575;28;20186;-47
2023/12/03 00:42:13;;;;;;;14.43;7.45;;;0.90;99.90;;;;;;5060206;28;20067;-52
2023/12/03 00:44:38;;;;;;;11.38;5.85;;;1.00;99.90;;;;;;5051402;28;20474;-45
2023/12/03 00:47:04;;;;;;;15.57;5.75;;;1.10;99.90;;;;;;5051538;28;20031;-54
2023/12/03 00:49:30;;;;;;;12.55;5.70;;;1.20;99.90;;;;;;5051335;28;20096;-53
2023/12/03 00:51:56;;;;;;;18.83;6.18;;;1.20;99.90;;;;;;5051399;28;20044;-51
2023/12/03 00:54:21;;;;;;;11.95;4.95;;;1.20;99.90;;;;;;5051602;28;20021;-50
2023/12/03 00:56:47;;;;;;;14.38;5.80;;;1.30;99.90;;;;;;5051411;28;20028;-46
2023/12/03 00:59:13;;;;;;;13.32;6.82;;;1.40;99.90;;;;;;5051416;28;20021;-55
2023/12/03 01:01:38;;;;;;;14.95;5.80;;;1.30;99.90;;;;;;5039382;28;20082;-48
2023/12/03 01:04:04;;;;;;;11.60;4.88;;;1.40;99.90;;;;;;5053823;28;20401;-53
2023/12/03 01:06:29;;;;;;;11.23;5.20;;;1.30;99.90;;;;;;5057521;28;20393;-42
2023/12/03 01:08:55;;;;;;;15.88;5.10;;;1.40;99.90;;;;;;5054367;28;20446;-51
2023/12/03 01:11:21;;;;;;;9.63;5.38;;;1.40;99.90;;;;;;5058170;28;20494;-45
2023/12/03 01:13:46;;;;;;;10.10;5.20;;;1.40;99.90;;;;;;5057178;28;20096;-43
2023/12/03 01:16:15;;;;;;;8.77;4.97;;;1.50;99.90;;;;;;5060842;28;20056;-54
2023/12/03 01:18:41;;;;;;;11.85;5.05;;;1.50;99.90;;;;;;5053311;28;20024;-49
2023/12/03 01:21:07;;;;;;;15.68;6.00;;;1.50;99.90;;;;;;5051054;28;20116;-49
2023/12/03 01:23:33;;;;;;;11.07;4.60;;;1.60;99.90;;;;;;5050794;28;20120;-53
2023/12/03 01:25:59;;;;;;;8.73;4.00;;;1.60;99.90;;;;;;5052539;28;20017;-55
2023/12/03 01:28:24;;;;;;;10.18;4.45;;;1.70;99.90;;;;;;5039436;28;20036;-49
2023/12/03 01:30:50;;;;;;;8.13;4.50;;;1.80;99.90;;;;;;5050727;28;20549;-45
2023/12/03 01:33:16;;;;;;;11.07;4.65;;;1.90;99.90;;;;;;5050553;28;20357;-42
2023/12/03 01:35:41;;;;;;;12.27;4.22;;;1.90;99.90;;;;;;5050829;28;20052;-42
2023/12/03 01:38:07;;;;;;;7.50;3.58;;;2.00;99.90;;;;;;5055736;28;20519;-45
2023/12/03 01:40:33;;;;;;;8.07;3.90;;;2.00;99.90;;;;;;5070734;28;20025;-51
2023/12/03 01:42:59;;;;;;;7.55;3.58;;;2.10;99.90;;;;;;5070484;28;20047;-44
2023/12/03 01:45:25;;;;;;;8.48;2.88;;;2.20;99.90;;;;;;5070530;28;20074;-46
2023/12/03 01:47:51;;;;;;;11.38;3.22;;;2.20;99.90;;;;;;5070287;28;20427;-48
2023/12/03 01:50:17;;;;;;;6.30;3.10;;;2.30;99.90;;;;;;5070609;28;20040;-44
2023/12/03 01:52:43;;;;;;;8.95;3.47;;;2.30;99.90;;;;;;5070530;28;20035;-42
2023/12/03 01:55:14;;;;;;;8.00;2.90;;;2.40;99.90;;;;;;5070282;28;20103;-44
2023/12/03 01:57:42;;;;;;;5.88;2.30;;;2.50;99.90;;;;;;5070341;28;20421;-54
2023/12/03 02:00:09;;;;;;;6.43;2.22;;;2.60;99.90;;;;;;5051689;28;20021;-46
2023/12/03 02:02:35;;;;;;;5.00;2.17;;;2.70;99.90;;;;;;5070734;28;20032;-56
2023/12/03 02:05:01;;;;;;;6.35;2.15;;;2.70;99.90;;;;;;5070088;28;20036;-46
2023/12/03 02:07:26;;;;;;;4.85;2.28;;;2.80;99.90;;;;;;5070397;28;20102;-42
2023/12/03 02:09:52;;;;;;;3.25;1.77;;;2.70;99.90;;;;;;5070139;28;20473;-45
2023/12/03 02:12:18;;;;;;;2.83;1.40;;;2.80;99.90;;;;;;5070156;28;20020;-51
2023/12/03 02:14:44;;;;;;;3.22;1.60;;;2.80;99.90;;;;;;5070043;28;20420;-42
2023/12/03 02:17:09;;;;;;;5.00;2.08;;;2.80;99.90;;;;;;5069859;28;20047;-48
2023/12/03 02:19:35;;;;;;;3.88;1.83;;;2.80;99.90;;;;;;5070099;28;20060;-51
2023/12/03 02:22:00;;;;;;;5.22;2.00;;;2.90;99.90;;;;;;5070234;28;20056;-46
2023/12/03 02:24:26;;;;;;;4.78;1.48;;;3.00;99.90;;;;;;5070095;28;20103;-46
2023/12/03 02:26:52;;;;;;;2.92;1.50;;;3.10;99.90;;;;;;5070016;28;20035;-47
2023/12/03 02:29:17;;;;;;;2.67;1.20;;;3.20;99.90;;;;;;5070056;28;20021;-45
2023/12/03 02:31:43;;;;;;;2.83;1.30;;;3.30;99.90;;;;;;5069426;28;20041;-47
2023/12/03 02:34:13;;;;;;;2.20;1.20;;;3.40;99.90;;;;;;5069327;28;20056;-43
2023/12/03 02:36:39;;;;;;;2.53;1.20;;;3.40;99.90;;;;;;5069784;28;20066;-46
2023/12/03 02:39:05;;;;;;;2.78;1.30;;;3.50;99.90;;;;;;5069557;28;20161;-43
2023/12/03 02:41:31;;;;;;;2.90;1.10;;;3.60;99.90;;;;;;5069561;28;20028;-46
2023/12/03 02:43:56;;;;;;;2.63;1.10;;;3.60;99.90;;;;;;5069491;28;20029;-50
2023/12/03 02:46:22;;;;;;;2.92;1.17;;;3.70;99.90;;;;;;5069182;28;20090;-47
2023/12/03 02:48:48;;;;;;;2.92;1.08;;;3.80;99.90;;;;;;5069555;28;20047;-44
2023/12/03 02:51:14;;;;;;;3.78;0.98;;;3.90;99.90;;;;;;5069789;28;20469;-44
2023/12/03 02:53:40;;;;;;;5.13;1.10;;;4.00;99.90;;;;;;5069606;28;20021;-51
2023/12/03 02:56:06;;;;;;;4.22;1.80;;;4.10;99.90;;;;;;5069678;28;20119;-45
2023/12/03 02:58:33;;;;;;;5.93;1.17;;;4.10;99.90;;;;;;5069281;28;20016;-54
2023/12/03 03:00:58;;;;;;;3.85;1.05;;;4.10;99.90;;;;;;5069673;28;20029;-47
2023/12/03 03:03:24;;;;;;;2.40;1.00;;;4.10;99.90;;;;;;5069602;28;20025;-48
2023/12/03 03:05:50;;;;;;;4.70;1.40;;;4.10;99.90;;;;;;5069951;28;20428;-44
2023/12/03 03:08:15;;;;;;;2.92;1.15;;;4.20;99.90;;;;;;5069692;28;20166;-49
2023/12/03 03:10:41;;;;;;;2.65;1.13;;;4.20;99.90;;;;;;5069778;28;20112;-44
2023/12/03 03:13:08;;;;;;;2.50;1.30;;;4.20;99.90;;;;;;5073256;28;20040;-49
2023/12/03 03:15:34;;;;;;;5.10;1.33;;;4.30;99.90;;;;;;5073273;28;20016;-47
2023/12/03 03:18:00;;;;;;;4.20;1.33;;;4.40;99.90;;;;;;5073286;28;20413;-43
2023/12/03 03:20:25;;;;;;;11.35;2.63;;;4.60;99.90;;;;;;5073271;28;20017;-45
2023/12/03 03:22:51;;;;;;;5.75;1.70;;;4.70;99.90;;;;;;5073362;28;20108;-49
2023/12/03 03:25:17;;;;;;;7.68;2.15;;;4.80;99.90;;;;;;5073164;28;20017;-43
2023/12/03 03:27:43;;;;;;;5.65;2.00;;;4.90;99.90;;;;;;5073248;28;20043;-50
2023/12/03 03:30:09;;;;;;;6.50;2.45;;;4.90;99.90;;;;;;5073168;28;20017;-45
2023/12/03 03:32:35;;;;;;;7.38;2.22;;;5.00;99.90;;;;;;5072764;28;20024;-44
2023/12/03 03:35:02;;;;;;;8.88;2.40;;;5.10;99.90;;;;;;5072903;28;20028;-47
2023/12/03 03:37:28;;;;;;;9.20;2.65;;;5.10;99.90;;;;;;5072613;28;20055;-46
2023/12/03 03:39:53;;;;;;;5.38;2.78;;;5.20;99.90;;;;;;5059136;28;20024;-49
2023/12/03 03:42:20;;;;;;;5.70;2.38;;;5.20;99.90;;;;;;5071637;28;20025;-46
2023/12/03 03:44:46;;;;;;;5.70;2.28;;;5.20;99.90;;;;;;5072894;28;20090;-47
2023/12/03 03:47:13;;;;;;;4.63;1.90;;;5.20;99.90;;;;;;5066739;28;20032;-52
2023/12/03 03:49:39;;;;;;;5.85;1.92;;;5.30;99.90;;;;;;5063702;28;20031;-45
2023/12/03 03:52:05;;;;;;;3.40;1.58;;;5.30;99.90;;;;;;5071605;28;20108;-52
2023/12/03 03:54:31;;;;;;;3.90;1.48;;;5.40;99.90;;;;;;5072367;28;20024;-49
2023/12/03 03:56:56;;;;;;;6.22;1.70;;;5.30;99.90;;;;;;5072491;28;20043;-48
2023/12/03 03:59:22;;;;;;;6.43;1.75;;;5.30;99.90;;;;;;5072502;28;20031;-46
2023/12/03 04:01:47;;;;;;;1.92;1.00;;;5.30;99.90;;;;;;5052586;28;20382;-47
2023/12/03 04:04:13;;;;;;;4.15;1.50;;;5.30;99.90;;;;;;5064875;28;20036;-43
2023/12/03 04:06:40;;;;;;;2.88;1.27;;;5.30;99.90;;;;;;5072517;28;20048;-49
2023/12/03 04:09:09;;;;;;;2.88;1.23;;;5.30;99.90;;;;;;5054642;28;20362;-53
2023/12/03 04:11:39;;;;;;;2.63;1.17;;;5.20;99.90;;;;;;5072424;28;20029;-45
2023/12/03 04:14:07;;;;;;;9.38;1.83;;;5.20;99.90;;;;;;5072972;28;20043;-46
2023/12/03 04:16:33;;;;;;;2.38;1.10;;;5.10;99.90;;;;;;5071118;28;20044;-48
2023/12/03 04:18:59;;;;;;;4.68;1.83;;;5.00;99.90;;;;;;5052298;28;20457;-49
2023/12/03 04:21:24;;;;;;;3.17;1.35;;;4.90;99.90;;;;;;5065612;28;20149;-52
2023/12/03 04:23:50;;;;;;;5.03;1.88;;;4.90;99.90;;;;;;5071740;28;20017;-43
2023/12/03 04:26:15;;;;;;;3.97;1.80;;;4.80;99.90;;;;;;5072207;28;20029;-51
2023/12/03 04:28:41;;;;;;;6.03;1.85;;;4.80;99.90;;;;;;5072004;28;20050;-44
2023/12/03 04:31:22;;;;;;;3.85;1.80;;;4.60;99.90;;;;;;5072259;28;20021;-44
2023/12/03 04:33:55;;;;;;;3.60;1.60;;;4.60;99.90;;;;;;5071940;28;20029;-43
2023/12/03 04:36:23;;;;;;;5.43;1.90;;;4.60;99.90;;;;;;5071924;28;20025;-51
2023/12/03 04:38:52;;;;;;;4.60;2.00;;;4.60;99.90;;;;;;5053405;28;20341;-44
2023/12/03 04:41:18;;;;;;;4.45;1.98;;;4.60;99.90;;;;;;5072012;28;20024;-44
2023/12/03 04:43:43;;;;;;;4.80;1.83;;;4.60;99.90;;;;;;5071816;28;20029;-59
2023/12/03 04:46:09;;;;;;;4.78;2.00;;;4.60;99.90;;;;;;5071868;28;20031;-45
2023/12/03 04:48:36;;;;;;;6.45;1.63;;;4.60;99.90;;;;;;5071841;28;20044;-46
2023/12/03 04:51:02;;;;;;;2.65;1.35;;;4.60;99.90;;;;;;5067283;28;20504;-51
2023/12/03 04:53:28;;;;;;;8.82;2.00;;;4.60;99.90;;;;;;5062257;28;20028;-48
2023/12/03 04:55:53;;;;;;;3.80;2.03;;;4.60;99.90;;;;;;5071490;28;20330;-46
2023/12/03 04:58:19;;;;;;;3.97;1.60;;;4.70;99.90;;;;;;5071589;28;20108;-44
2023/12/03 05:00:45;;;;;;;3.38;1.65;;;4.70;99.90;;;;;;5071428;28;20048;-47
2023/12/03 05:03:11;;;;;;;4.53;1.95;;;4.60;99.90;;;;;;5071515;28;20029;-47
2023/12/03 05:05:36;;;;;;;5.95;2.10;;;4.60;99.90;;;;;;5071380;28;20025;-49
2023/12/03 05:08:02;;;;;;;5.55;2.25;;;4.60;99.90;;;;;;5071255;28;20154;-50
2023/12/03 05:10:29;;;;;;;5.18;2.33;;;4.60;99.90;;;;;;5071538;28;20096;-49
2023/12/03 05:12:55;;;;;;;7.25;2.63;;;4.60;99.90;;;;;;5069010;28;20028;-44
2023/12/03 05:15:21;;;;;;;4.95;2.28;;;4.70;99.90;;;;;;5059481;28;20465;-48
2023/12/03 05:17:47;;;;;;;7.75;2.00;;;4.70;99.90;;;;;;5071009;28;20115;-44
2023/12/03 05:20:12;;;;;;;8.13;2.22;;;4.70;99.90;;;;;;5071199;28;20108;-52
2023/12/03 05:22:38;;;;;;;9.13;2.45;;;4.70;99.90;;;;;;5071119;28;20025;-43
2023/12/03 05:25:04;;;;;;;7.18;2.45;;;4.80;99.90;;;;;;5070978;28;20052;-51
2023/12/03 05:27:30;;;;;;;3.55;1.63;;;4.80;99.90;;;;;;5071073;28;20060;-44
2023/12/03 05:29:56;;;;;;;9.77;2.95;;;4.80;99.90;;;;;;5070996;28;20051;-47
2023/12/03 05:32:22;;;;;;;7.72;2.70;;;4.80;99.90;;;;;;5070865;28;20474;-46
2023/12/03 05:34:47;;;;;;;5.72;2.45;;;4.80;99.90;;;;;;5070105;28;20027;-46
2023/12/03 05:37:13;;;;;;;8.77;2.63;;;4.90;99.90;;;;;;5070447;28;20091;-45
2023/12/03 05:39:42;;;;;;;15.13;2.80;;;4.80;99.90;;;;;;5071024;28;20039;-50
2023/12/03 05:42:07;;;;;;;7.00;2.92;;;4.80;99.90;;;;;;5070711;28;20036;-45
2023/12/03 05:44:33;;;;;;;5.80;2.33;;;4.80;99.90;;;;;;5070587;28;20025;-44
2023/12/03 05:47:00;;;;;;;10.00;2.53;;;4.90;99.90;;;;;;5070668;28;20024;-46
2023/12/03 05:49:26;;;;;;;9.88;3.08;;;4.90;99.90;;;;;;5070566;28;20085;-44
2023/12/03 05:51:51;;;;;;;6.57;2.15;;;4.90;99.90;;;;;;5059804;28;20021;-49
2023/12/03 05:54:17;;;;;;;7.68;2.63;;;4.90;99.90;;;;;;5067338;28;20449;-45
2023/12/03 05:56:44;;;;;;;8.02;2.15;;;5.00;99.90;;;;;;5069758;28;20033;-44
2023/12/03 05:59:10;;;;;;;5.53;2.10;;;5.00;99.90;;;;;;5069805;28;20029;-44
2023/12/03 06:01:36;;;;;;;12.90;2.20;;;5.00;99.90;;;;;;5069935;28;20496;-43
2023/12/03 06:04:06;;;;;;;7.75;2.33;;;5.00;99.90;;;;;;5069546;28;20024;-45
2023/12/03 06:06:32;;;;;;;5.45;1.58;;;5.00;99.90;;;;;;5052523;28;20361;-47
2023/12/03 06:08:58;;;;;;;7.55;2.33;;;5.00;99.90;;;;;;5070320;28;20029;-46
2023/12/03 06:11:24;;;;;;;3.15;1.45;;;5.00;99.90;;;;;;5070304;28;20111;-49
2023/12/03 06:13:49;;;;;;;5.63;2.03;;;5.00;99.90;;;;;;5070380;28;20389;-49
2023/12/03 06:16:15;;;;;;;5.65;1.80;;;5.00;99.90;;;;;;5070140;28;20501;-52
2023/12/03 06:18:42;;;;;;;4.53;1.50;;;5.00;99.90;;;;;;5070226;28;20036;-43
2023/12/03 06:21:08;;;;;;;7.78;2.00;;;5.00;99.90;;;;;;5070276;28;20036;-47
2023/12/03 06:23:33;;;;;;;10.82;2.63;;;5.00;99.90;;;;;;5070480;28;20021;-49
2023/12/03 06:26:00;;;;;;;6.22;1.60;;;5.00;99.90;;;;;;5070204;28;20026;-48
2023/12/03 06:28:25;;;;;;;4.05;1.77;;;5.10;99.90;;;;;;5070111;28;20428;-48
2023/12/03 06:30:51;;;;;;;7.25;2.20;;;5.00;99.90;;;;;;5070080;28;20036;-52
2023/12/03 06:33:19;;;;;;;4.47;2.17;;;5.10;99.90;;;;;;5069882;28;20086;-45
2023/12/03 06:35:45;;;;;;;5.75;1.88;;;5.10;99.90;;;;;;5070102;28;20405;-43
2023/12/03 06:38:11;;;;;;;5.72;2.03;;;5.00;99.90;;;;;;5069825;28;20106;-47
2023/12/03 06:40:36;;;;;;;7.93;2.25;;;5.00;99.90;;;;;;5070011;28;20094;-52
2023/12/03 06:43:02;;;;;;;5.53;2.55;;;5.10;99.90;;;;;;5070013;28;20024;-48
2023/12/03 06:45:28;;;;;;;15.55;2.58;;;5.10;99.90;;;;;;5070885;28;20020;-46
2023/12/03 06:47:53;;;;;;;9.48;2.85;;;5.10;99.90;;;;;;5074160;28;20128;-48
2023/12/03 06:50:19;;;;;;;5.57;2.08;;;5.10;99.90;;;;;;5073912;28;20031;-47
2023/12/03 06:52:45;;;;;;;8.40;2.17;;;5.20;99.90;;;;;;5059788;28;20021;-52
2023/12/03 06:55:11;;;;;;;8.63;2.80;;;5.20;99.90;;;;;;5074075;28;20024;-46
2023/12/03 06:57:37;;;;;;;6.57;2.42;;;5.10;99.90;;;;;;5073665;28;20163;-52
2023/12/03 07:00:04;;;;;;;12.70;2.28;;;5.20;99.90;;;;;;5073782;28;20509;-44
2023/12/03 07:02:30;;;;;;;4.30;2.13;;;5.20;99.90;;;;;;5073633;28;20051;-50
2023/12/03 07:04:55;;;;;;;8.88;2.42;;;5.20;99.90;;;;;;5073820;28;20378;-45
2023/12/03 07:07:21;;;;;;;13.75;2.55;;;5.20;99.90;;;;;;5073718;28;20025;-48
2023/12/03 07:09:46;;;;;;;15.10;2.88;;;5.20;99.90;;;;;;5073422;28;20024;-51
2023/12/03 07:12:12;;;;;;;12.05;2.40;;;5.20;99.90;;;;;;5073737;28;20165;-52
2023/12/03 07:14:38;;;;;;;13.52;2.67;;;5.30;99.90;;;;;;5073426;28;20031;-49
2023/12/03 07:17:03;;;;;;;10.38;2.20;;;5.30;99.90;;;;;;5073599;28;20121;-53
2023/12/03 07:19:29;;;;;;;10.35;2.47;;;5.30;99.90;;;;;;5073505;28;20365;-47
2023/12/03 07:21:55;;;;;;;5.82;2.45;;;5.40;99.90;;;;;;5073502;28;20059;-47
2023/12/03 07:24:21;;;;;;;11.10;2.92;;;5.40;99.90;;;;;;5073590;28;20070;-48
2023/12/03 07:26:47;;;;;;;8.52;2.17;;;5.40;99.90;;;;;;5073452;28;20112;-49
2023/12/03 07:29:13;;;;;;;13.15;2.92;;;5.50;99.90;;;;;;5072904;28;20447;-45
2023/12/03 07:31:38;;;;;;;15.32;3.03;;;5.50;99.90;;;;;;5072787;28;20075;-49
2023/12/03 07:34:04;;;;;;;11.50;3.15;;;5.60;99.90;;;;;;5060176;28;20029;-49
2023/12/03 07:36:29;;;;;;;11.88;2.90;;;5.60;99.90;;;;;;5052954;28;20021;-49
2023/12/03 07:38:55;;;;;;;9.38;2.65;;;5.70;99.90;;;;;;5052777;28;20161;-53
2023/12/03 07:41:21;;;;;;;12.00;2.85;;;5.80;99.90;;;;;;5052922;28;20032;-49
2023/12/03 07:43:46;;;;;;;6.85;2.88;;;5.80;99.90;;;;;;5052941;28;20028;-47
2023/12/03 07:46:18;;;;;;;8.40;2.85;;;5.90;99.90;;;;;;5052796;28;20405;-47
2023/12/03 07:48:45;;;;;;;7.32;2.72;;;5.90;99.90;;;;;;5052935;28;20127;-44
2023/12/03 07:51:11;;;;;;;7.72;3.13;;;6.00;99.90;;;;;;5066855;28;20025;-52
2023/12/03 07:53:38;;;;;;;7.97;2.97;;;6.00;99.90;;;;;;5064318;28;20647;-44
2023/12/03 07:56:04;;;;;;;13.75;3.30;;;6.10;99.90;;;;;;5054804;28;20029;-43
2023/12/03 07:58:30;;;;;;;10.85;3.42;;;6.20;99.90;;;;;;5071324;28;20044;-46
2023/12/03 08:00:58;;;;;;;14.57;4.25;;;6.30;99.90;;;;;;5072116;28;20020;-43
2023/12/03 08:03:23;;;;;;;12.80;3.33;;;6.40;99.90;;;;;;5072733;28;20492;-43
2023/12/03 08:05:49;;;;;;;10.25;3.78;;;6.40;99.90;;;;;;5072757;28;20107;-43
2023/12/03 08:08:15;;;;;;;15.65;4.53;;;6.50;99.90;;;;;;5066611;28;20377;-43
2023/12/03 08:10:40;;;;;;;11.40;3.55;;;6.50;99.90;;;;;;5063279;28;20492;-43
2023/12/03 08:13:06;;;;;;;10.68;3.72;;;6.60;99.90;;;;;;5062285;28;20028;-47
2023/12/03 08:15:31;;;;;;;10.95;3.95;;;6.60;99.90;;;;;;5061255;28;20082;-43
2023/12/03 08:17:57;;;;;;;13.63;4.85;;;6.60;99.90;;;;;;5062617;28;20143;-43
2023/12/03 08:20:23;;;;;;;12.70;4.90;;;6.60;99.90;;;;;;5069112;28;20082;-43
2023/12/03 08:22:48;;;;;;;12.55;4.15;;;6.70;99.90;;;;;;5070804;28;20027;-43
2023/12/03 08:25:14;;;;;;;19.38;4.85;;;6.70;99.90;;;;;;5052345;28;20029;-42
2023/12/03 08:27:40;;;;;;;15.00;5.15;;;6.70;99.90;;;;;;5052206;28;20056;-43
2023/12/03 08:30:06;;;;;;;12.57;4.65;;;6.70;99.90;;;;;;5052038;28;20048;-43
2023/12/03 08:32:32;;;;;;;12.30;5.50;;;6.80;99.90;;;;;;5052144;28;20092;-43
2023/12/03 08:34:58;;;;;;;14.27;4.82;;;6.80;99.90;;;;;;5051777;28;20458;-43
2023/12/03 08:37:23;;;;;;;17.05;4.97;;;6.90;99.90;;;;;;5051805;28;20072;-43
2023/12/03 08:39:49;;;;;;;18.58;4.75;;;6.90;99.90;;;;;;5051915;28;20029;-43
2023/12/03 08:42:16;;;;;;;16.13;4.85;;;6.90;99.90;;;;;;5051740;28;20032;-43
2023/12/03 08:44:42;;;;;;;14.35;5.43;;;7.00;99.90;;;;;;5056865;28;20051;-43
2023/12/03 08:47:08;;;;;;;11.70;4.90;;;7.00;99.90;;;;;;5051814;28;20060;-44
2023/12/03 08:49:34;;;;;;;12.02;5.65;;;7.00;99.90;;;;;;5057846;28;20031;-43
2023/12/03 08:52:00;;;;;;;13.23;5.07;;;7.10;99.90;;;;;;5059779;28;20096;-43
2023/12/03 08:54:26;;;;;;;11.07;4.72;;;7.10;99.90;;;;;;5069665;28;20016;-47
2023/12/03 08:56:51;;;;;;;14.75;5.18;;;7.00;99.90;;;;;;5071556;28;20036;-44
2023/12/03 08:59:19;;;;;;;10.75;4.68;;;7.10;99.90;;;;;;5071795;28;20140;-43
2023/12/03 09:01:45;;;;;;;12.85;5.03;;;7.20;99.90;;;;;;5071802;28;20109;-44
2023/12/03 09:04:12;;;;;;;14.15;5.65;;;7.20;99.90;;;;;;5060285;28;20025;-43
2023/12/03 09:06:39;;;;;;;14.18;5.25;;;7.20;99.90;;;;;;5067740;28;20043;-45
2023/12/03 09:09:05;;;;;;;13.48;4.88;;;7.20;99.90;;;;;;5069255;28;20028;-43
2023/12/03 09:11:31;;;;;;;15.75;5.05;;;7.20;99.90;;;;;;5068771;28;20047;-48
2023/12/03 09:13:57;;;;;;;10.73;4.85;;;7.20;99.90;;;;;;5069903;28;20521;-45
2023/12/03 09:16:23;;;;;;;9.57;4.68;;;7.30;99.90;;;;;;5067456;28;20033;-50
2023/12/03 09:18:48;;;;;;;14.55;4.45;;;7.30;99.90;;;;;;5051180;28;20032;-48
2023/12/03 09:21:14;;;;;;;17.52;4.85;;;7.50;99.90;;;;;;5050943;28;20040;-43
2023/12/03 09:23:40;;;;;;;14.05;4.63;;;7.50;99.90;;;;;;5051133;28;20028;-48
2023/12/03 09:26:06;;;;;;;13.50;5.05;;;7.70;99.90;;;;;;5051024;28;20396;-47
2023/12/03 09:28:32;;;;;;;9.30;4.28;;;7.70;99.90;;;;;;5055193;28;20013;-45
2023/12/03 09:30:59;;;;;;;15.35;3.75;;;7.80;99.90;;;;;;5050868;28;20036;-43
2023/12/03 09:33:28;;;;;;;12.88;4.10;;;7.90;99.90;;;;;;5053493;28;20695;-43
2023/12/03 09:35:56;;;;;;;7.18;3.55;;;8.00;99.90;;;;;;5061361;28;20032;-44
2023/12/03 09:38:22;;;;;;;11.85;3.70;;;8.10;99.90;;;;;;5052497;28;20080;-49
2023/12/03 09:40:49;;;;;;;9.20;3.80;;;8.20;99.90;;;;;;5050808;28;20439;-50
2023/12/03 09:43:20;;;;;;;11.20;3.22;;;8.20;99.90;;;;;;5050633;28;20557;-45
2023/12/03 09:45:49;;;;;;;16.65;4.15;;;8.30;99.90;;;;;;5050784;28;20104;-47
2023/12/03 09:48:19;;;;;;;11.82;4.10;;;8.30;99.90;;;;;;5050663;28;20025;-46
2023/12/03 09:50:45;;;;;;;13.40;3.42;;;8.30;99.90;;;;;;5064626;28;20033;-48
2023/12/03 09:53:11;;;;;;;10.35;3.47;;;8.40;99.90;;;;;;5058418;28;20093;-43
2023/12/03 09:55:39;;;;;;;17.63;4.05;;;8.40;99.90;;;;;;5070818;28;20035;-45
2023/12/03 09:58:09;;;;;;;8.02;3.10;;;8.40;99.90;;;;;;5070359;28;20477;-44
2023/12/03 10:00:37;;;;;;;8.07;3.20;;;8.40;99.90;;;;;;5053018;28;20458;-54
2023/12/03 10:03:04;;;;;;;10.20;2.92;;;8.40;99.90;;;;;;5070268;28;20066;-45
2023/12/03 10:05:30;;;;;;;7.78;2.65;;;8.40;99.90;;;;;;5070276;28;20028;-44
2023/12/03 10:07:57;;;;;;;9.00;2.78;;;8.40;99.90;;;;;;5070241;28;20549;-45
2023/12/03 10:10:28;;;;;;;7.07;2.70;;;8.40;99.90;;;;;;5060142;28;20016;-55
2023/12/03 10:12:55;;;;;;;6.85;3.15;;;8.30;99.90;;;;;;5053755;28;20016;-46
2023/12/03 10:15:21;;;;;;;7.30;2.63;;;8.30;99.90;;;;;;5035550;28;20135;-53
2023/12/03 10:17:49;;;;;;;5.55;2.72;;;8.30;99.90;;;;;;5058653;28;20100;-49
2023/12/03 10:20:22;;;;;;;7.70;2.40;;;8.30;99.90;;;;;;5055256;28;20036;-54
2023/12/03 10:22:52;;;;;;;12.30;2.65;;;8.30;99.90;;;;;;5050137;28;20045;-46
2023/12/03 10:25:27;;;;;;;5.85;1.85;;;8.40;99.90;;;;;;5050058;28;20092;-43
2023/12/03 10:27:55;;;;;;;2.92;1.60;;;8.30;99.90;;;;;;5049906;28;20469;-44
2023/12/03 10:30:20;;;;;;;5.38;1.58;;;8.20;99.90;;;;;;5050003;28;20021;-47
2023/12/03 10:32:46;;;;;;;4.28;1.50;;;8.20;99.90;;;;;;5050020;28;20025;-44
2023/12/03 10:35:12;;;;;;;9.57;1.77;;;8.20;99.90;;;;;;5054099;28;20478;-52
2023/12/03 10:37:38;;;;;;;5.40;1.38;;;8.10;99.90;;;;;;5056653;28;20072;-47
2023/12/03 10:40:04;;;;;;;4.75;1.58;;;8.10;99.90;;;;;;5049635;28;20071;-50
2023/12/03 10:42:35;;;;;;;4.63;1.10;;;8.00;99.90;;;;;;5049862;28;20037;-52
2023/12/03 10:45:09;;;;;;;6.10;1.30;;;7.90;99.90;;;;;;5051375;28;20059;-51
2023/12/03 10:47:36;;;;;;;6.30;1.05;;;7.90;99.90;;;;;;5049657;28;20036;-52
2023/12/03 10:50:05;;;;;;;3.17;0.98;;;7.90;99.90;;;;;;5059772;28;20077;-51
2023/12/03 10:52:38;;;;;;;6.83;0.90;;;7.90;99.90;;;;;;5069666;28;20033;-48
2023/12/03 10:55:05;;;;;;;3.28;1.15;;;8.00;99.90;;;;;;5069168;28;20296;-43
2023/12/03 10:57:34;;;;;;;5.03;1.23;;;8.00;99.90;;;;;;5033356;28;20044;-47
2023/12/03 11:00:05;;;;;;;4.20;1.20;;;7.90;99.90;;;;;;5049693;28;20520;-45
2023/12/03 11:02:41;;;;;;;3.58;1.42;;;8.00;99.90;;;;;;5049304;28;20033;-43
2023/12/03 11:05:10;;;;;;;3.55;1.55;;;8.00;99.90;;;;;;5049689;28;20020;-53
2023/12/03 11:07:37;;;;;;;8.33;2.13;;;8.10;99.90;;;;;;5049434;28;20441;-49
2023/12/03 11:10:03;;;;;;;5.90;2.10;;;8.10;99.90;;;;;;5049619;28;20266;-48
2023/12/03 11:12:29;;;;;;;9.55;2.53;;;8.20;99.90;;;;;;5048775;28;20048;-42
2023/12/03 11:14:55;;;;;;;8.60;2.90;;;8.30;99.90;;;;;;5047551;28;20486;-44
2023/12/03 11:17:30;;;;;;;10.80;3.03;;;8.30;99.90;;;;;;5047625;28;20037;-49
2023/12/03 11:20:07;;;;;;;10.90;2.75;;;8.30;99.90;;;;;;5047999;28;20027;-51
2023/12/03 11:22:46;;;;;;;6.35;2.53;;;8.30;99.90;;;;;;5047967;28;20444;-46
2023/12/03 11:25:14;;;;;;;;;;;8.40;99.90;;;;;;5048388;28;20033;-52
2023/12/03 11:27:43;;;;;;;4.00;1.88;;;8.40;99.90;;;;;;5049425;28;19909;-46
2023/12/03 11:30:10;;;;;;;4.25;1.85;;;8.30;99.90;;;;;;5051307;28;20173;-47
2023/12/03 11:32:36;;;;;;;8.23;2.25;;;8.40;99.90;;;;;;5050801;28;20055;-52
2023/12/03 11:35:12;;;;;;;9.25;2.10;;;8.30;99.90;;;;;;5052972;28;20029;-48
2023/12/03 11:37:41;;;;;;;8.85;1.77;;;8.40;99.90;;;;;;5056369;28;20405;-44
2023/12/03 11:40:15;;;;;;;13.27;2.17;;;8.40;99.90;;;;;;5056583;28;20523;-46
2023/12/03 11:42:43;;;;;;;8.20;2.00;;;8.40;99.90;;;;;;5053161;28;20120;-43
2023/12/03 11:45:42;;;;;;;4.43;1.80;;;8.40;99.90;;;;;;5052740;28;20389;-45
2023/12/03 11:48:11;;;;;;;3.47;1.48;;;8.30;99.90;;;;;;5053002;28;20603;-44
2023/12/03 11:50:40;;;;;;;7.15;1.50;;;8.40;99.90;;;;;;5069300;28;20102;-43
2023/12/03 11:53:07;;;;;;;7.18;1.63;;;8.30;99.90;;;;;;5053030;28;20102;-47
2023/12/03 11:55:35;;;;;;;9.98;1.73;;;8.40;99.90;;;;;;5061148;28;20013;-47
2023/12/03 11:58:04;;;;;;;4.72;1.30;;;8.40;99.90;;;;;;5059368;28;20037;-49
2023/12/03 12:00:33;;;;;;;9.48;1.52;;;8.40;99.90;;;;;;5058430;28;20111;-50
2023/12/03 12:03:06;;;;;;;6.00;1.58;;;8.40;99.90;;;;;;5065521;28;20029;-51
2023/12/03 12:05:32;;;;;;;5.75;1.90;;;8.50;99.90;;;;;;5068568;28;20400;-46
2023/12/03 12:08:01;;;;;;;5.60;1.42;;;8.40;99.90;;;;;;5057804;28;20025;-46
2023/12/03 12:10:34;;;;;;;3.80;1.15;;;8.40;99.90;;;;;;5062250;28;20032;-49
2023/12/03 12:13:03;;;;;;;7.32;1.70;;;8.40;99.90;;;;;;5062294;28;20017;-46
2023/12/03 12:15:29;;;;;;;2.97;1.33;;;8.40;99.90;;;;;;5060472;28;20020;-50
2023/12/03 12:17:54;;;;;;;8.68;1.40;;;8.40;99.90;;;;;;5056670;28;20040;-42
2023/12/03 12:20:28;;;;;;;4.97;1.40;;;8.40;99.90;;;;;;5070384;28;20021;-47
2023/12/03 12:22:55;;;;;;;7.53;1.50;;;8.30;99.90;;;;;;5070442;28;20032;-45
2023/12/03 12:25:24;;;;;;;4.32;1.20;;;8.30;99.90;;;;;;5052692;28;20028;-51
2023/12/03 12:27:50;;;;;;;3.25;1.60;;;8.30;99.90;;;;;;5068216;28;20093;-47
2023/12/03 12:30:19;;;;;;;3.05;1.20;;;8.30;99.90;;;;;;5069302;28;20036;-44
2023/12/03 12:32:51;;;;;;;4.03;1.50;;;8.30;99.90;;;;;;5072219;28;20024;-49
2023/12/03 12:35:18;;;;;;;4.18;1.88;;;8.30;99.90;;;;;;5071480;28;20173;-48
2023/12/03 12:37:44;;;;;;;4.85;1.13;;;8.30;99.90;;;;;;5062975;28;20566;-48
2023/12/03 12:40:11;;;;;;;6.05;1.60;;;8.30;99.90;;;;;;5069126;28;20029;-43
2023/12/03 12:42:43;;;;;;;3.28;1.33;;;8.30;99.90;;;;;;5065267;28;20275;-52
2023/12/03 12:45:28;;;;;;;5.40;1.50;;;8.30;99.90;;;;;;5058664;28;20025;-50
2023/12/03 12:47:54;;;;;;;3.60;0.70;;;8.30;99.90;;;;;;5065764;28;20036;-44
2023/12/03 12:50:30;;;;;;;5.80;0.90;;;8.40;99.90;;;;;;5070543;28;20481;-49